Scenic, South Dakota
Current Conditions -  °F | °C
As of 9:52 AM on Tuesday 27 Jan 2015 (Local Time) from KRAP Reporting Station
Clear Clear  
Wind Chill: 64°   Ceiling: Unl
Heat Index: 64°   Visibility: 10mi
Dew Point: 25°   Wind: 8mph
Humidity: 23%   Direction: 290°WNW
Pressure: 29.97"   Gusts: NA
Location:  43.78°N, 102.56°W
Report Text: KRAP 271652Z 29007KT 10SM CLR 18/M04 A2997 RMK AO2 SLP144 T01781039
Loading
Personal Weather Stations






























Interactive Weather Map New forecast layout! Learn more

10-Day Weather Forecast

Advertisements
Track Severe Weather on mobile